Park View, Iowa
Current Conditions -  °F | °C
As of 10:52 PM on Friday 31 Oct 2014 (Local Time) from KDVN Reporting Station
Clear Clear  
Wind Chill: 17°   Ceiling: Unl
Heat Index: 25°   Visibility: 10mi
Dew Point: 17°   Wind: 7mph
Humidity: 72%   Direction: 330°NNW
Pressure: 30.45"   Gusts: NA
Location:  41.666°N, 90.5607°W
Report Text: KDVN 010352Z AUTO 33006KT 10SM CLR M04/M08 A3045 RMK AO2 SLP321 T10391083 TSNO
Loading
Personal Weather Stations






























Interactive Weather Map
Tropical Storm Tracking
New forecast layout! Learn more

10-Day Weather Forecast

Advertisements
Track Severe Weather on mobile